createdAt,value
2018-08-11T00:00:54.349Z,15.25
2018-08-11T00:03:22.580Z,15.17
2018-08-11T00:05:51.100Z,15.56
2018-08-11T00:08:19.288Z,15.43
2018-08-11T00:10:47.518Z,15.40
2018-08-11T00:13:15.692Z,15.41
2018-08-11T00:15:43.874Z,15.37
2018-08-11T00:18:12.068Z,15.40
2018-08-11T00:20:40.282Z,15.42
2018-08-11T00:23:08.502Z,15.44
2018-08-11T00:25:36.781Z,15.29
2018-08-11T00:28:04.973Z,15.19
2018-08-11T00:30:33.172Z,15.03
2018-08-11T00:33:01.389Z,14.96
2018-08-11T00:35:29.621Z,15.04
2018-08-11T00:37:57.859Z,14.98
2018-08-11T00:40:26.058Z,14.92
2018-08-11T00:42:54.498Z,14.92
2018-08-11T00:45:22.909Z,14.92
2018-08-11T00:47:51.405Z,14.89
2018-08-11T00:50:22.357Z,14.85
2018-08-11T00:52:50.563Z,14.90
2018-08-11T00:55:18.755Z,14.83
2018-08-11T00:57:46.996Z,14.82
2018-08-11T01:00:17.262Z,14.72
2018-08-11T01:02:45.532Z,14.77
2018-08-11T01:05:16.589Z,14.59
2018-08-11T01:07:45.278Z,14.47
2018-08-11T01:10:14.215Z,14.48
2018-08-11T01:12:43.260Z,14.58
2018-08-11T01:15:14.914Z,14.65
2018-08-11T01:17:43.307Z,14.54
2018-08-11T01:20:12.185Z,14.58
2018-08-11T01:22:41.272Z,14.46
2018-08-11T01:25:10.321Z,14.49
2018-08-11T01:27:38.506Z,14.52
2018-08-11T01:30:13.458Z,14.54
2018-08-11T01:32:41.656Z,14.50
2018-08-11T01:35:10.658Z,14.33
2018-08-11T01:37:39.850Z,14.20
2018-08-11T01:40:09.540Z,14.12
2018-08-11T01:42:38.052Z,14.11
2018-08-11T01:45:07.045Z,14.06
2018-08-11T01:47:35.238Z,14.32
2018-08-11T01:50:03.436Z,14.25
2018-08-11T01:52:31.646Z,14.04
2018-08-11T01:54:59.931Z,14.12
2018-08-11T01:57:28.105Z,13.96
2018-08-11T01:59:56.333Z,14.11
2018-08-11T02:02:24.528Z,14.34
2018-08-11T02:04:52.709Z,14.46
2018-08-11T02:07:20.913Z,14.39
2018-08-11T02:09:49.132Z,14.56
2018-08-11T02:12:17.385Z,14.56
2018-08-11T02:14:45.617Z,14.72
2018-08-11T02:17:13.831Z,14.72
2018-08-11T02:19:42.022Z,14.73
2018-08-11T02:22:10.225Z,14.90
2018-08-11T02:24:38.495Z,14.76
2018-08-11T02:27:07.075Z,14.59
2018-08-11T02:29:35.266Z,14.57
2018-08-11T02:32:03.501Z,14.46
2018-08-11T02:34:31.716Z,14.97
2018-08-11T02:36:59.906Z,15.33
2018-08-11T02:39:34.698Z,15.26
2018-08-11T02:42:02.885Z,15.09
2018-08-11T02:44:31.050Z,15.26
2018-08-11T02:46:59.945Z,15.24
2018-08-11T02:49:28.197Z,15.07
2018-08-11T02:51:56.369Z,15.35
2018-08-11T02:54:24.817Z,15.19
2018-08-11T02:56:53.033Z,15.12
2018-08-11T02:59:23.094Z,15.21
2018-08-11T03:01:51.737Z,14.84
2018-08-11T03:04:19.938Z,14.46
2018-08-11T03:06:48.169Z,14.85
2018-08-11T03:09:16.355Z,15.08
2018-08-11T03:11:44.545Z,14.84
2018-08-11T03:14:12.755Z,14.97
2018-08-11T03:16:40.941Z,14.67
2018-08-11T03:19:09.143Z,14.36
2018-08-11T03:21:37.329Z,14.56
2018-08-11T03:24:05.618Z,14.61
2018-08-11T03:26:33.812Z,14.63
2018-08-11T03:29:01.995Z,14.89
2018-08-11T03:31:30.189Z,14.90
2018-08-11T03:33:58.653Z,14.84
2018-08-11T03:36:26.833Z,15.09
2018-08-11T03:38:55.466Z,14.98
2018-08-11T03:41:23.662Z,14.80
2018-08-11T03:43:51.851Z,14.97
2018-08-11T03:46:20.052Z,15.10
2018-08-11T03:48:48.258Z,14.66
2018-08-11T03:51:16.437Z,14.88
2018-08-11T03:53:44.609Z,14.91
2018-08-11T03:56:13.079Z,15.14
2018-08-11T03:58:41.255Z,15.32
2018-08-11T04:01:09.441Z,15.25
2018-08-11T04:03:37.681Z,15.31
2018-08-11T04:06:05.965Z,15.29
2018-08-11T04:08:34.139Z,15.15
2018-08-11T04:11:02.334Z,15.08
2018-08-11T04:13:30.517Z,15.16
2018-08-11T04:15:58.715Z,15.52
2018-08-11T04:18:27.188Z,15.24
2018-08-11T04:20:55.359Z,15.30
2018-08-11T04:23:23.532Z,15.20
2018-08-11T04:25:51.722Z,15.23
2018-08-11T04:28:19.935Z,15.19
2018-08-11T04:30:48.124Z,15.33
2018-08-11T04:33:16.304Z,15.69
2018-08-11T04:35:44.549Z,15.21
2018-08-11T04:38:12.958Z,15.80
2018-08-11T04:40:41.470Z,15.57
2018-08-11T04:43:09.642Z,15.83
2018-08-11T04:45:37.832Z,15.60
2018-08-11T04:48:06.088Z,15.66
2018-08-11T04:50:34.258Z,16.21
2018-08-11T04:53:02.417Z,16.58
2018-08-11T04:55:30.608Z,16.02
2018-08-11T04:57:58.798Z,16.17
2018-08-11T05:00:26.994Z,15.38
2018-08-11T05:02:55.173Z,15.82
2018-08-11T05:05:23.358Z,15.70
2018-08-11T05:07:51.567Z,16.20
2018-08-11T05:10:19.839Z,16.29
2018-08-11T05:12:48.329Z,15.87
2018-08-11T05:15:16.975Z,15.98
2018-08-11T05:17:45.185Z,16.23
2018-08-11T05:20:13.540Z,16.22
2018-08-11T05:22:42.068Z,15.60
2018-08-11T05:25:10.265Z,16.02
2018-08-11T05:27:38.502Z,16.71
2018-08-11T05:30:07.159Z,16.70
2018-08-11T05:32:35.391Z,16.77
2018-08-11T05:35:03.680Z,16.60
2018-08-11T05:37:32.220Z,16.69
2018-08-11T05:40:00.437Z,16.70
2018-08-11T05:42:28.640Z,16.77
2018-08-11T05:44:56.832Z,16.58
2018-08-11T05:47:25.090Z,16.69
2018-08-11T05:49:53.386Z,16.77
2018-08-11T05:52:21.846Z,17.21
2018-08-11T05:54:50.035Z,17.12
2018-08-11T05:57:18.258Z,17.33
2018-08-11T05:59:46.434Z,16.86
2018-08-11T06:02:14.636Z,17.35
2018-08-11T06:04:43.343Z,18.06
2018-08-11T06:07:11.690Z,18.35
2018-08-11T06:09:40.754Z,17.62
2018-08-11T06:12:08.958Z,17.63
2018-08-11T06:14:37.165Z,17.74
2018-08-11T06:17:05.545Z,17.29
2018-08-11T06:19:33.729Z,17.31
2018-08-11T06:22:01.937Z,17.87
2018-08-11T06:24:30.125Z,17.73
2018-08-11T06:26:58.337Z,17.65
2018-08-11T06:29:26.538Z,18.18
2018-08-11T06:31:54.860Z,18.65
2018-08-11T06:34:22.985Z,18.51
2018-08-11T06:36:51.194Z,18.05
2018-08-11T06:39:19.405Z,17.74
2018-08-11T06:41:48.001Z,17.70
2018-08-11T06:44:16.179Z,18.52
2018-08-11T06:46:44.526Z,17.88
2018-08-11T06:49:12.644Z,18.03
2018-08-11T06:51:41.245Z,17.30
2018-08-11T06:54:09.830Z,17.73
2018-08-11T06:56:38.082Z,16.69
2018-08-11T06:59:06.494Z,17.23
2018-08-11T07:01:35.130Z,18.32
2018-08-11T07:04:03.429Z,18.71
2018-08-11T07:06:31.800Z,18.69
2018-08-11T07:09:00.011Z,19.18
2018-08-11T07:11:28.213Z,18.60
2018-08-11T07:13:56.405Z,18.59
2018-08-11T07:16:24.722Z,18.09
2018-08-11T07:18:52.909Z,18.06
2018-08-11T07:21:21.133Z,17.65
2018-08-11T07:23:49.405Z,18.49
2018-08-11T07:26:17.626Z,18.56
2018-08-11T07:28:45.797Z,18.18
2018-08-11T07:31:13.999Z,18.64
2018-08-11T07:33:42.281Z,19.04
2018-08-11T07:36:10.530Z,19.08
2018-08-11T07:38:38.713Z,19.37
2018-08-11T07:41:07.195Z,19.54
2018-08-11T07:43:35.437Z,19.01
2018-08-11T07:46:03.717Z,19.26
2018-08-11T07:48:31.927Z,19.19
2018-08-11T07:51:00.119Z,19.18
2018-08-11T07:53:28.357Z,20.03
2018-08-11T07:55:57.450Z,20.98
2018-08-11T07:58:25.951Z,21.99
2018-08-11T08:00:54.487Z,22.53
2018-08-11T08:03:22.770Z,21.56
2018-08-11T08:05:50.985Z,21.94
2018-08-11T08:08:19.222Z,20.78
2018-08-11T08:10:47.471Z,20.85
2018-08-11T08:13:15.653Z,19.98
2018-08-11T08:15:43.873Z,19.64
2018-08-11T08:18:12.066Z,20.03
2018-08-11T08:20:40.287Z,20.85
2018-08-11T08:23:08.501Z,21.02
2018-08-11T08:25:36.696Z,20.79
2018-08-11T08:28:04.956Z,20.31
2018-08-11T08:30:33.350Z,19.65
2018-08-11T08:33:01.596Z,20.60
2018-08-11T08:35:29.808Z,20.85
2018-08-11T08:37:57.982Z,20.57
2018-08-11T08:40:26.178Z,21.30
2018-08-11T08:42:54.414Z,21.56
2018-08-11T08:45:22.700Z,22.58
2018-08-11T08:47:51.538Z,22.82
2018-08-11T08:50:19.737Z,24.04
2018-08-11T08:52:47.945Z,24.11
2018-08-11T08:55:16.218Z,22.73
2018-08-11T08:57:44.771Z,22.18
2018-08-11T09:00:13.129Z,23.88
2018-08-11T09:02:41.406Z,20.95
2018-08-11T09:05:09.627Z,22.68
2018-08-11T09:07:37.813Z,21.65
2018-08-11T09:10:05.993Z,22.74
2018-08-11T09:12:34.193Z,22.62
2018-08-11T09:15:02.589Z,23.72
2018-08-11T09:17:30.783Z,25.31
2018-08-11T09:19:58.979Z,24.80
2018-08-11T09:22:29.198Z,24.27
2018-08-11T09:24:57.425Z,23.61
2018-08-11T09:27:25.700Z,25.19
2018-08-11T09:29:53.914Z,24.99
2018-08-11T09:32:22.138Z,25.49
2018-08-11T09:34:50.329Z,25.40
2018-08-11T09:37:18.521Z,24.82
2018-08-11T09:39:46.712Z,25.95
2018-08-11T09:42:14.891Z,25.89
2018-08-11T09:44:43.083Z,25.74
2018-08-11T09:47:12.313Z,25.82
2018-08-11T09:49:40.491Z,24.03
2018-08-11T09:52:08.743Z,26.47
2018-08-11T09:54:36.945Z,24.85
2018-08-11T09:57:05.181Z,25.99
2018-08-11T09:59:33.387Z,25.00
2018-08-11T10:02:06.987Z,24.13
2018-08-11T10:04:35.183Z,25.31
2018-08-11T10:07:03.402Z,24.22
2018-08-11T10:09:31.734Z,24.02
2018-08-11T10:11:59.940Z,25.73
2018-08-11T10:14:28.230Z,25.22
2018-08-11T10:16:56.448Z,25.31
2018-08-11T10:19:24.688Z,25.05
2018-08-11T10:21:52.926Z,24.48
2018-08-11T10:24:21.354Z,25.84
2018-08-11T10:26:49.928Z,27.23
2018-08-11T10:29:18.195Z,28.45
2018-08-11T10:31:47.050Z,26.34
2018-08-11T10:34:15.378Z,24.70
2018-08-11T10:36:43.872Z,26.15
2018-08-11T10:39:13.020Z,27.83
2018-08-11T10:41:41.742Z,28.20
2018-08-11T10:44:11.125Z,30.95
2018-08-11T10:46:39.503Z,31.53
2018-08-11T10:49:07.730Z,30.90
2018-08-11T10:51:36.462Z,31.04
2018-08-11T10:54:04.810Z,30.32
2018-08-11T10:56:33.482Z,29.91
2018-08-11T10:59:03.777Z,28.62
2018-08-11T11:01:32.073Z,30.96
2018-08-11T11:06:41.858Z,29.97
2018-08-11T11:09:11.033Z,27.51
2018-08-11T11:11:39.710Z,28.33
2018-08-11T11:14:07.926Z,25.95
2018-08-11T11:16:36.744Z,36.17
2018-08-11T11:19:05.369Z,36.56
2018-08-11T11:21:33.629Z,39.37
2018-08-11T11:24:01.829Z,42.80
2018-08-11T11:26:30.377Z,41.17
2018-08-11T11:28:58.572Z,40.75
2018-08-11T11:31:26.782Z,33.71
2018-08-11T11:33:54.959Z,36.13
2018-08-11T11:36:23.492Z,34.74
2018-08-11T11:38:51.774Z,34.93
2018-08-11T11:41:20.171Z,37.11
2018-08-11T11:43:48.386Z,34.31
2018-08-11T11:46:17.057Z,32.70
2018-08-11T11:48:45.282Z,31.11
2018-08-11T11:51:13.713Z,30.22
2018-08-11T11:53:41.954Z,30.30
2018-08-11T11:56:10.144Z,31.81
2018-08-11T11:58:38.405Z,28.43
2018-08-11T12:01:06.698Z,28.99
2018-08-11T12:03:34.937Z,27.44
2018-08-11T12:06:03.473Z,29.64
2018-08-11T12:08:31.661Z,28.60
2018-08-11T12:10:59.969Z,28.18
2018-08-11T12:13:28.177Z,28.95
2018-08-11T12:15:56.391Z,37.42
2018-08-11T12:18:24.713Z,37.51
2018-08-11T12:20:52.929Z,33.37
2018-08-11T12:23:21.163Z,37.61
2018-08-11T12:25:49.334Z,30.13
2018-08-11T12:28:17.608Z,38.55
2018-08-11T12:30:45.904Z,34.51
2018-08-11T12:33:14.150Z,30.79
2018-08-11T12:35:42.384Z,29.81
2018-08-11T12:38:10.722Z,27.19
2018-08-11T12:40:38.974Z,27.45
2018-08-11T12:43:07.274Z,31.17
2018-08-11T12:45:35.529Z,41.14
2018-08-11T12:48:03.706Z,32.54
2018-08-11T12:50:31.910Z,29.15
2018-08-11T12:53:00.111Z,31.41
2018-08-11T12:55:28.745Z,28.04
2018-08-11T12:57:57.042Z,27.16
2018-08-11T13:00:25.333Z,37.99
2018-08-11T13:02:53.566Z,43.27
2018-08-11T13:05:21.876Z,39.20
2018-08-11T13:07:50.139Z,40.38
2018-08-11T13:10:18.396Z,35.37
2018-08-11T13:12:46.677Z,38.38
2018-08-11T13:15:14.894Z,39.58
2018-08-11T13:17:43.105Z,35.72
2018-08-11T13:20:13.021Z,44.27
2018-08-11T13:22:41.221Z,46.09
2018-08-11T13:25:09.625Z,43.38
2018-08-11T13:27:37.869Z,40.86
2018-08-11T13:30:07.169Z,47.14
2018-08-11T13:32:35.469Z,37.80
2018-08-11T13:35:04.405Z,39.31
2018-08-11T13:37:32.904Z,39.39
2018-08-11T13:40:01.081Z,42.54
2018-08-11T13:42:29.274Z,45.69
2018-08-11T13:44:57.853Z,44.10
2018-08-11T13:47:26.106Z,47.90
2018-08-11T13:49:54.330Z,42.09
2018-08-11T13:52:22.542Z,43.40
2018-08-11T13:54:51.061Z,42.01
2018-08-11T13:57:19.557Z,39.15
2018-08-11T13:59:47.753Z,42.72
2018-08-11T14:02:15.942Z,41.34
2018-08-11T14:04:44.421Z,45.26
2018-08-11T14:07:12.865Z,43.37
2018-08-11T14:09:41.045Z,42.64
2018-08-11T14:12:09.353Z,44.73
2018-08-11T14:14:37.927Z,42.18
2018-08-11T14:17:06.249Z,41.30
2018-08-11T14:19:34.431Z,42.10
2018-08-11T14:22:02.625Z,44.81
2018-08-11T14:24:30.829Z,34.40
2018-08-11T14:26:59.013Z,41.56
2018-08-11T14:29:27.285Z,41.45
2018-08-11T14:31:55.457Z,43.80
2018-08-11T14:34:23.781Z,38.88
2018-08-11T14:36:51.959Z,42.20
2018-08-11T14:39:20.144Z,40.86
2018-08-11T14:41:48.359Z,41.26
2018-08-11T14:44:16.577Z,41.73
2018-08-11T14:46:44.873Z,38.44
2018-08-11T14:49:13.178Z,38.48
2018-08-11T14:51:41.479Z,35.93
2018-08-11T14:54:09.686Z,39.48
2018-08-11T14:56:38.088Z,41.34
2018-08-11T14:59:06.292Z,35.70
2018-08-11T15:01:34.458Z,36.21
2018-08-11T15:04:02.882Z,34.72
2018-08-11T15:06:31.289Z,34.31
2018-08-11T15:08:59.483Z,32.03
2018-08-11T15:11:27.660Z,32.10
2018-08-11T15:13:55.872Z,31.17
2018-08-11T15:16:24.136Z,30.49
2018-08-11T15:18:52.355Z,29.79
2018-08-11T15:21:20.680Z,29.59
2018-08-11T15:23:48.892Z,29.92
2018-08-11T15:26:17.066Z,29.54
2018-08-11T15:28:45.263Z,29.91
2018-08-11T15:31:13.509Z,29.37
2018-08-11T15:33:41.794Z,27.91
2018-08-11T15:36:10.000Z,28.17
2018-08-11T15:38:38.261Z,28.12
2018-08-11T15:41:06.497Z,27.78
2018-08-11T15:43:34.737Z,27.57
2018-08-11T15:46:09.263Z,27.76
2018-08-11T15:48:37.759Z,27.58
2018-08-11T15:51:05.960Z,27.44
2018-08-11T15:53:34.200Z,27.59
2018-08-11T15:56:02.695Z,27.75
2018-08-11T15:58:30.916Z,27.33
2018-08-11T16:00:59.105Z,27.34
2018-08-11T16:03:27.320Z,27.68
2018-08-11T16:05:55.774Z,28.02
2018-08-11T16:08:23.969Z,27.47
2018-08-11T16:10:52.156Z,27.06
2018-08-11T16:13:20.332Z,27.46
2018-08-11T16:15:48.556Z,27.27
2018-08-11T16:18:16.762Z,27.61
2018-08-11T16:20:44.994Z,27.35
2018-08-11T16:23:13.178Z,26.70
2018-08-11T16:25:41.414Z,26.93
2018-08-11T16:28:09.605Z,26.50
2018-08-11T16:30:38.082Z,26.27
2018-08-11T16:33:06.734Z,26.78
2018-08-11T16:35:34.987Z,26.87
2018-08-11T16:38:03.161Z,26.66
2018-08-11T16:40:31.350Z,26.62
2018-08-11T16:42:59.540Z,26.00
2018-08-11T16:45:27.718Z,26.32
2018-08-11T16:47:56.013Z,26.04
2018-08-11T16:50:24.193Z,26.22
2018-08-11T16:52:52.387Z,26.07
2018-08-11T16:55:20.644Z,26.19
2018-08-11T16:57:48.824Z,25.85
2018-08-11T17:00:16.998Z,25.71
2018-08-11T17:02:45.174Z,25.63
2018-08-11T17:05:13.387Z,25.60
2018-08-11T17:07:41.548Z,25.76
2018-08-11T17:10:10.438Z,25.69
2018-08-11T17:12:39.228Z,25.29
2018-08-11T17:15:08.271Z,25.30
2018-08-11T17:17:36.458Z,25.25
2018-08-11T17:20:05.490Z,25.00
2018-08-11T17:22:33.658Z,25.32
2018-08-11T17:25:01.836Z,25.15
2018-08-11T17:27:30.040Z,25.06
2018-08-11T17:29:58.554Z,24.99
2018-08-11T17:32:27.086Z,25.01
2018-08-11T17:34:55.511Z,24.86
2018-08-11T17:37:23.933Z,25.00
2018-08-11T17:39:52.133Z,24.60
2018-08-11T17:42:20.313Z,24.51
2018-08-11T17:44:48.517Z,24.58
2018-08-11T17:47:18.082Z,24.44
2018-08-11T17:49:46.263Z,24.15
2018-08-11T17:52:14.453Z,24.17
2018-08-11T17:54:42.799Z,24.06
2018-08-11T17:57:11.004Z,23.97
2018-08-11T17:59:39.203Z,23.86
2018-08-11T18:02:07.409Z,23.53
2018-08-11T18:04:35.651Z,23.63
2018-08-11T18:07:03.885Z,23.35
2018-08-11T18:09:32.076Z,23.21
2018-08-11T18:12:00.248Z,23.24
2018-08-11T18:14:28.446Z,23.13
2018-08-11T18:16:56.730Z,23.08
2018-08-11T18:19:24.950Z,22.89
2018-08-11T18:21:53.151Z,22.75
2018-08-11T18:24:21.470Z,22.53
2018-08-11T18:26:49.662Z,22.29
2018-08-11T18:29:18.620Z,22.12
2018-08-11T18:31:46.804Z,22.14
2018-08-11T18:34:15.233Z,22.14
2018-08-11T18:36:43.805Z,22.02
2018-08-11T18:39:13.683Z,21.94
2018-08-11T18:41:42.537Z,21.81
2018-08-11T18:44:10.777Z,21.58
2018-08-11T18:46:39.017Z,21.54
2018-08-11T18:49:07.409Z,21.47
2018-08-11T18:51:36.065Z,21.56
2018-08-11T18:54:04.461Z,21.39
2018-08-11T18:56:32.717Z,21.28
2018-08-11T18:59:01.061Z,21.26
2018-08-11T19:01:29.334Z,21.25
2018-08-11T19:03:57.544Z,21.15
2018-08-11T19:06:26.212Z,20.87
2018-08-11T19:08:54.356Z,20.69
2018-08-11T19:11:22.620Z,20.65
2018-08-11T19:13:50.838Z,20.44
2018-08-11T19:16:19.182Z,20.31
2018-08-11T19:18:48.162Z,20.29
2018-08-11T19:21:16.670Z,20.35
2018-08-11T19:23:44.974Z,20.47
2018-08-11T19:26:13.250Z,20.47
2018-08-11T19:28:41.717Z,20.34
2018-08-11T19:31:10.010Z,20.25
2018-08-11T19:33:38.258Z,20.22
2018-08-11T19:36:07.077Z,20.09
2018-08-11T19:38:35.405Z,20.08
2018-08-11T19:41:03.885Z,20.08
2018-08-11T19:43:32.097Z,20.11
2018-08-11T19:46:00.646Z,19.89
2018-08-11T19:48:28.927Z,19.79
2018-08-11T19:50:57.187Z,19.70
2018-08-11T19:53:25.642Z,19.52
2018-08-11T19:55:53.831Z,19.42
2018-08-11T19:58:22.082Z,19.20
2018-08-11T20:00:50.392Z,19.18
2018-08-11T20:03:18.610Z,19.11
2018-08-11T20:05:46.810Z,19.02
2018-08-11T20:08:15.150Z,19.00
2018-08-11T20:10:43.456Z,18.81
2018-08-11T20:13:12.037Z,18.71
2018-08-11T20:15:40.286Z,18.65
2018-08-11T20:18:08.754Z,18.43
2018-08-11T20:20:36.990Z,18.37
2018-08-11T20:23:05.392Z,18.39
2018-08-11T20:25:33.902Z,18.33
2018-08-11T20:28:01.964Z,18.27
2018-08-11T20:30:30.334Z,18.08
2018-08-11T20:32:58.554Z,18.09
2018-08-11T20:35:26.748Z,18.07
2018-08-11T20:37:55.089Z,17.98
2018-08-11T20:40:23.383Z,17.97
2018-08-11T20:42:52.036Z,17.85
2018-08-11T20:45:20.514Z,17.82
2018-08-11T20:47:49.426Z,17.78
2018-08-11T20:50:17.853Z,17.75
2018-08-11T20:52:46.058Z,17.80
2018-08-11T20:55:14.294Z,17.83
2018-08-11T20:57:42.521Z,17.84
2018-08-11T21:00:12.585Z,17.76
2018-08-11T21:02:40.941Z,17.53
2018-08-11T21:05:11.934Z,17.60
2018-08-11T21:07:40.667Z,17.41
2018-08-11T21:10:11.515Z,17.46
2018-08-11T21:12:40.267Z,17.39
2018-08-11T21:15:09.444Z,17.55
2018-08-11T21:17:38.053Z,17.31
2018-08-11T21:20:08.105Z,17.39
2018-08-11T21:22:37.209Z,17.42
2018-08-11T21:25:06.303Z,17.16
2018-08-11T21:27:34.618Z,17.19
2018-08-11T21:30:02.935Z,17.20
2018-08-11T21:32:31.434Z,17.13
2018-08-11T21:34:59.634Z,17.07
2018-08-11T21:37:27.865Z,17.01
2018-08-11T21:39:56.050Z,16.94
2018-08-11T21:42:24.546Z,16.81
2018-08-11T21:44:52.740Z,16.84
2018-08-11T21:47:21.305Z,16.86
2018-08-11T21:49:49.621Z,16.61
2018-08-11T21:52:17.808Z,16.56
2018-08-11T21:54:46.092Z,16.56
2018-08-11T21:57:14.277Z,16.62
2018-08-11T21:59:42.785Z,16.36
2018-08-11T22:02:17.604Z,16.43
2018-08-11T22:04:45.837Z,16.42
2018-08-11T22:07:14.580Z,16.45
2018-08-11T22:09:42.841Z,16.42
2018-08-11T22:12:11.021Z,16.36
2018-08-11T22:14:39.211Z,16.38
2018-08-11T22:17:07.465Z,16.26
2018-08-11T22:19:35.643Z,16.18
2018-08-11T22:22:03.889Z,16.18
2018-08-11T22:24:32.100Z,16.19
2018-08-11T22:27:00.328Z,16.25
2018-08-11T22:29:28.522Z,16.12
2018-08-11T22:31:57.074Z,16.09
2018-08-11T22:34:25.260Z,15.85
2018-08-11T22:36:53.491Z,15.76
2018-08-11T22:39:22.128Z,15.73
2018-08-11T22:41:50.326Z,15.56
2018-08-11T22:44:18.514Z,15.56
2018-08-11T22:46:46.764Z,15.54
2018-08-11T22:49:14.934Z,15.35
2018-08-11T22:51:43.486Z,15.31
2018-08-11T22:54:11.736Z,15.25
2018-08-11T22:56:39.910Z,15.26
2018-08-11T22:59:08.094Z,15.37
2018-08-11T23:01:36.290Z,15.41
2018-08-11T23:04:04.794Z,15.22
2018-08-11T23:06:32.985Z,15.41
2018-08-11T23:09:01.173Z,15.28
2018-08-11T23:11:29.357Z,15.32
2018-08-11T23:13:57.529Z,15.16
2018-08-11T23:16:25.725Z,14.95
2018-08-11T23:18:53.935Z,14.84
2018-08-11T23:21:22.129Z,14.83
2018-08-11T23:23:50.341Z,14.88
2018-08-11T23:26:18.539Z,14.91
2018-08-11T23:28:46.981Z,14.81
2018-08-11T23:31:15.456Z,14.80
2018-08-11T23:33:43.627Z,14.82
2018-08-11T23:36:11.803Z,15.04
2018-08-11T23:38:39.988Z,15.00
2018-08-11T23:41:08.196Z,14.92
2018-08-11T23:43:36.386Z,14.71
2018-08-11T23:46:04.695Z,14.51
2018-08-11T23:48:32.914Z,14.54
2018-08-11T23:51:01.111Z,14.63
2018-08-11T23:53:29.902Z,14.58
2018-08-11T23:55:58.097Z,14.51
2018-08-11T23:58:26.514Z,14.56
